OMAL/AAN METAR and TAF weather

Enter ICAO airport designator
Station Type Date Time Source
OMAL METAR 2020/09/22 17:00 UTC NOAA

OMAL 221700Z 01007KT CAVOK 35/05 Q1005 BECMG 07006KT


Station Type Date Time Source
OMAL Decoded METAR 2020/09/22 17:00 UTC NOAA

Al Ain International Airport, United Arab Emirates (OMAL) 24-16N 055-36E 262M
Sep 22, 2020 - 01:00 PM EDT / 2020.09.22 1700 UTC
Wind: from the N (010 degrees) at 8 MPH (7 KT):0
Visibility: greater than 7 mile(s):0
Temperature: 95 F (35 C)
Dew Point: 41 F (5 C)
Relative Humidity: 15%
Pressure (altimeter): 29.68 in. Hg (1005 hPa)
ob: OMAL 221700Z 01007KT CAVOK 35/05 Q1005 BECMG 07006KT
cycle: 17

Station Type Date Time Source
OMAL TAF 2020/09/22 18:01 UTC NOAA

TAF OMAL 221700Z 2218/2400 03008KT CAVOK
BECMG 2222/2300 09012KT PROB30
TEMPO 2304/2309 09020KT 4000 BLDU

Example: see airport list